sensor_id;sensor_type;location;lat;lon;timestamp;pressure;altitude;pressure_sealevel;temperature;humidity
63901;BME280;50538;53.482;10.294;2023-02-19T00:07:14;101056.75;;;4.28;100.00
63901;BME280;50538;53.482;10.294;2023-02-19T00:17:15;101057.47;;;4.30;100.00
63901;BME280;50538;53.482;10.294;2023-02-19T00:27:15;101052.94;;;4.32;100.00
63901;BME280;50538;53.482;10.294;2023-02-19T00:37:15;101051.88;;;4.35;100.00
63901;BME280;50538;53.482;10.294;2023-02-19T00:47:16;101029.53;;;4.41;100.00
63901;BME280;50538;53.482;10.294;2023-02-19T00:57:16;101047.81;;;4.42;100.00
63901;BME280;50538;53.482;10.294;2023-02-19T01:07:16;101047.81;;;4.42;100.00
63901;BME280;50538;53.482;10.294;2023-02-19T01:17:16;101059.28;;;4.41;100.00
63901;BME280;50538;53.482;10.294;2023-02-19T01:27:17;101063.72;;;4.41;100.00
63901;BME280;50538;53.482;10.294;2023-02-19T01:37:17;101054.16;;;4.40;100.00
63901;BME280;50538;53.482;10.294;2023-02-19T01:47:18;101053.31;;;4.39;100.00
63901;BME280;50538;53.482;10.294;2023-02-19T01:57:22;101043.50;;;4.41;100.00
63901;BME280;50538;53.482;10.294;2023-02-19T02:07:25;101048.28;;;4.36;100.00
63901;BME280;50538;53.482;10.294;2023-02-19T02:17:58;101048.53;;;4.33;100.00
63901;BME280;50538;53.482;10.294;2023-02-19T02:38:23;101050.78;;;4.15;100.00
63901;BME280;50538;53.482;10.294;2023-02-19T02:48:55;101072.97;;;4.00;100.00
63901;BME280;50538;53.482;10.294;2023-02-19T02:59:00;101063.63;;;3.96;100.00
63901;BME280;50538;53.482;10.294;2023-02-19T03:09:08;101058.72;;;3.91;100.00
63901;BME280;50538;53.482;10.294;2023-02-19T03:19:13;101070.31;;;3.89;100.00
63901;BME280;50538;53.482;10.294;2023-02-19T03:29:25;101071.47;;;3.85;100.00
63901;BME280;50538;53.482;10.294;2023-02-19T03:39:27;101084.63;;;3.85;100.00
63901;BME280;50538;53.482;10.294;2023-02-19T03:49:44;101100.72;;;3.80;100.00
63901;BME280;50538;53.482;10.294;2023-02-19T03:59:52;101107.03;;;3.78;100.00
63901;BME280;50538;53.482;10.294;2023-02-19T04:09:57;101113.47;;;3.74;100.00
63901;BME280;50538;53.482;10.294;2023-02-19T04:19:59;101120.72;;;3.70;100.00
63901;BME280;50538;53.482;10.294;2023-02-19T04:30:03;101129.44;;;3.71;100.00
63901;BME280;50538;53.482;10.294;2023-02-19T04:40:04;101143.63;;;3.68;100.00
63901;BME280;50538;53.482;10.294;2023-02-19T04:50:04;101167.47;;;3.65;100.00
63901;BME280;50538;53.482;10.294;2023-02-19T05:00:05;101174.84;;;3.60;100.00
63901;BME280;50538;53.482;10.294;2023-02-19T05:10:07;101186.53;;;3.56;100.00
63901;BME280;50538;53.482;10.294;2023-02-19T05:20:07;101181.72;;;3.50;100.00
63901;BME280;50538;53.482;10.294;2023-02-19T05:30:08;101191.00;;;3.43;100.00
63901;BME280;50538;53.482;10.294;2023-02-19T05:40:09;101201.09;;;3.36;100.00
63901;BME280;50538;53.482;10.294;2023-02-19T05:50:09;101224.50;;;3.26;100.00
63901;BME280;50538;53.482;10.294;2023-02-19T06:00:11;101236.47;;;3.18;100.00
63901;BME280;50538;53.482;10.294;2023-02-19T06:10:12;101246.75;;;3.08;100.00
63901;BME280;50538;53.482;10.294;2023-02-19T06:20:12;101274.59;;;2.98;100.00
63901;BME280;50538;53.482;10.294;2023-02-19T06:30:12;101299.66;;;2.89;100.00
63901;BME280;50538;53.482;10.294;2023-02-19T06:40:13;101307.81;;;2.85;100.00
63901;BME280;50538;53.482;10.294;2023-02-19T06:50:13;101343.06;;;2.81;100.00
63901;BME280;50538;53.482;10.294;2023-02-19T07:00:14;101359.63;;;2.81;100.00
63901;BME280;50538;53.482;10.294;2023-02-19T07:10:15;101371.81;;;2.82;100.00
63901;BME280;50538;53.482;10.294;2023-02-19T07:20:15;101386.22;;;2.89;100.00
63901;BME280;50538;53.482;10.294;2023-02-19T07:30:16;101408.56;;;2.95;100.00
63901;BME280;50538;53.482;10.294;2023-02-19T07:40:16;101421.81;;;3.06;100.00
63901;BME280;50538;53.482;10.294;2023-02-19T07:50:16;101449.75;;;3.20;100.00
63901;BME280;50538;53.482;10.294;2023-02-19T08:00:17;101460.84;;;3.38;100.00
63901;BME280;50538;53.482;10.294;2023-02-19T08:10:19;101476.94;;;3.58;100.00
63901;BME280;50538;53.482;10.294;2023-02-19T08:20:37;101493.09;;;3.65;100.00
63901;BME280;50538;53.482;10.294;2023-02-19T08:30:39;101492.09;;;3.93;100.00
63901;BME280;50538;53.482;10.294;2023-02-19T08:40:40;101492.88;;;4.44;100.00
63901;BME280;50538;53.482;10.294;2023-02-19T08:50:40;101511.19;;;4.82;99.90
63901;BME280;50538;53.482;10.294;2023-02-19T09:00:40;101534.25;;;5.15;97.88
63901;BME280;50538;53.482;10.294;2023-02-19T09:10:41;101549.94;;;5.41;95.76
63901;BME280;50538;53.482;10.294;2023-02-19T09:20:41;101567.34;;;5.54;92.78
63901;BME280;50538;53.482;10.294;2023-02-19T09:30:41;101597.50;;;5.74;92.34
63901;BME280;50538;53.482;10.294;2023-02-19T09:40:42;101592.41;;;5.84;91.26
63901;BME280;50538;53.482;10.294;2023-02-19T09:50:46;101604.03;;;5.92;89.29
63901;BME280;50538;53.482;10.294;2023-02-19T10:00:48;101611.03;;;6.05;89.40
63901;BME280;50538;53.482;10.294;2023-02-19T10:10:50;101642.19;;;6.11;86.21
63901;BME280;50538;53.482;10.294;2023-02-19T10:20:52;101661.84;;;6.07;84.27
63901;BME280;50538;53.482;10.294;2023-02-19T10:30:56;101689.22;;;6.17;79.24
63901;BME280;50538;53.482;10.294;2023-02-19T10:51:01;101691.81;;;6.41;74.63
63901;BME280;50538;53.482;10.294;2023-02-19T11:01:19;101689.41;;;6.49;71.43
63901;BME280;50538;53.482;10.294;2023-02-19T11:11:28;101731.13;;;6.67;73.06
63901;BME280;50538;53.482;10.294;2023-02-19T11:21:29;101730.84;;;6.59;67.53
63901;BME280;50538;53.482;10.294;2023-02-19T11:31:33;101730.06;;;6.70;64.41
63901;BME280;50538;53.482;10.294;2023-02-19T11:52:09;101751.09;;;6.94;61.33
63901;BME280;50538;53.482;10.294;2023-02-19T12:02:31;101742.47;;;7.14;65.21
63901;BME280;50538;53.482;10.294;2023-02-19T12:12:40;101744.50;;;7.22;63.74
63901;BME280;50538;53.482;10.294;2023-02-19T12:22:52;101751.38;;;7.36;63.16
63901;BME280;50538;53.482;10.294;2023-02-19T12:43:39;101776.47;;;7.52;60.87
63901;BME280;50538;53.482;10.294;2023-02-19T12:54:01;101770.00;;;7.56;59.76
63901;BME280;50538;53.482;10.294;2023-02-19T13:04:21;101772.97;;;7.74;59.74
63901;BME280;50538;53.482;10.294;2023-02-19T13:14:44;101755.41;;;7.84;62.84
63901;BME280;50538;53.482;10.294;2023-02-19T13:24:45;101741.22;;;7.85;61.17
63901;BME280;50538;53.482;10.294;2023-02-19T13:35:15;101727.94;;;8.08;60.63
63901;BME280;50538;53.482;10.294;2023-02-19T13:45:32;101729.84;;;8.17;62.14
63901;BME280;50538;53.482;10.294;2023-02-19T14:06:11;101738.16;;;8.12;62.63
63901;BME280;50538;53.482;10.294;2023-02-19T14:16:28;101757.16;;;8.06;61.99
63901;BME280;50538;53.482;10.294;2023-02-19T14:26:31;101770.78;;;8.22;62.69
63901;BME280;50538;53.482;10.294;2023-02-19T14:36:36;101757.97;;;8.18;58.37
63901;BME280;50538;53.482;10.294;2023-02-19T14:56:51;101745.28;;;8.01;61.26
63901;BME280;50538;53.482;10.294;2023-02-19T15:06:53;101745.66;;;7.85;64.03
63901;BME280;50538;53.482;10.294;2023-02-19T15:17:01;101758.06;;;7.73;64.79
63901;BME280;50538;53.482;10.294;2023-02-19T15:27:03;101754.72;;;7.60;66.33
63901;BME280;50538;53.482;10.294;2023-02-19T15:37:06;101743.19;;;7.39;67.27
63901;BME280;50538;53.482;10.294;2023-02-19T15:57:21;101759.41;;;7.01;70.65
63901;BME280;50538;53.482;10.294;2023-02-19T16:07:26;101767.88;;;6.82;72.51
63901;BME280;50538;53.482;10.294;2023-02-19T16:17:26;101762.91;;;6.66;74.01
63901;BME280;50538;53.482;10.294;2023-02-19T16:27:35;101777.09;;;6.52;75.23
63901;BME280;50538;53.482;10.294;2023-02-19T16:37:54;101776.56;;;6.36;76.66
63901;BME280;50538;53.482;10.294;2023-02-19T16:47:55;101784.34;;;6.14;77.16
63901;BME280;50538;53.482;10.294;2023-02-19T16:57:55;101792.41;;;5.99;76.99
63901;BME280;50538;53.482;10.294;2023-02-19T17:07:56;101800.88;;;5.92;77.38
63901;BME280;50538;53.482;10.294;2023-02-19T17:17:56;101806.41;;;5.76;78.33
63901;BME280;50538;53.482;10.294;2023-02-19T17:27:56;101803.06;;;5.61;79.43
63901;BME280;50538;53.482;10.294;2023-02-19T17:37:57;101807.94;;;5.42;80.83
63901;BME280;50538;53.482;10.294;2023-02-19T17:47:58;101796.78;;;5.26;82.03
63901;BME280;50538;53.482;10.294;2023-02-19T17:57:58;101820.81;;;5.21;83.16
63901;BME280;50538;53.482;10.294;2023-02-19T18:07:59;101813.94;;;5.19;83.46
63901;BME280;50538;53.482;10.294;2023-02-19T18:17:59;101830.91;;;5.15;84.23
63901;BME280;50538;53.482;10.294;2023-02-19T18:28:00;101844.47;;;5.09;84.90
63901;BME280;50538;53.482;10.294;2023-02-19T18:38:00;101836.16;;;5.02;85.28
63901;BME280;50538;53.482;10.294;2023-02-19T18:48:02;101830.13;;;5.00;85.30
63901;BME280;50538;53.482;10.294;2023-02-19T18:58:02;101828.56;;;4.97;85.60
63901;BME280;50538;53.482;10.294;2023-02-19T19:08:03;101824.25;;;4.96;85.76
63901;BME280;50538;53.482;10.294;2023-02-19T19:18:23;101804.44;;;4.91;86.30
63901;BME280;50538;53.482;10.294;2023-02-19T19:28:24;101790.44;;;4.90;86.59
63901;BME280;50538;53.482;10.294;2023-02-19T19:38:24;101776.84;;;4.84;86.91
63901;BME280;50538;53.482;10.294;2023-02-19T19:48:25;101785.50;;;4.73;87.36
63901;BME280;50538;53.482;10.294;2023-02-19T19:58:28;101780.41;;;4.57;88.15
63901;BME280;50538;53.482;10.294;2023-02-19T20:08:29;101784.97;;;4.41;89.18
63901;BME280;50538;53.482;10.294;2023-02-19T20:18:29;101804.47;;;4.24;89.67
63901;BME280;50538;53.482;10.294;2023-02-19T20:28:30;101784.34;;;4.11;90.61
63901;BME280;50538;53.482;10.294;2023-02-19T20:38:30;101776.31;;;3.99;91.89
63901;BME280;50538;53.482;10.294;2023-02-19T20:48:31;101772.19;;;3.95;93.48
63901;BME280;50538;53.482;10.294;2023-02-19T20:58:31;101763.56;;;3.93;94.00
63901;BME280;50538;53.482;10.294;2023-02-19T21:08:31;101766.19;;;3.93;94.47
63901;BME280;50538;53.482;10.294;2023-02-19T21:18:32;101769.75;;;3.92;95.28
63901;BME280;50538;53.482;10.294;2023-02-19T21:28:32;101751.34;;;3.92;96.44
63901;BME280;50538;53.482;10.294;2023-02-19T21:38:33;101778.38;;;3.94;97.01
63901;BME280;50538;53.482;10.294;2023-02-19T21:48:33;101763.34;;;3.96;97.31
63901;BME280;50538;53.482;10.294;2023-02-19T21:58:33;101749.00;;;4.02;97.30
63901;BME280;50538;53.482;10.294;2023-02-19T22:08:34;101718.75;;;4.09;97.44
63901;BME280;50538;53.482;10.294;2023-02-19T22:18:34;101692.47;;;4.09;97.11
63901;BME280;50538;53.482;10.294;2023-02-19T22:28:37;101699.50;;;4.09;97.19
63901;BME280;50538;53.482;10.294;2023-02-19T22:38:37;101695.00;;;4.11;97.75
63901;BME280;50538;53.482;10.294;2023-02-19T22:48:38;101689.72;;;4.11;98.36
63901;BME280;50538;53.482;10.294;2023-02-19T22:58:38;101706.03;;;4.16;98.69
63901;BME280;50538;53.482;10.294;2023-02-19T23:08:40;101704.88;;;4.20;99.07
63901;BME280;50538;53.482;10.294;2023-02-19T23:18:41;101700.25;;;4.23;98.65
63901;BME280;50538;53.482;10.294;2023-02-19T23:28:42;101661.56;;;4.25;98.62
63901;BME280;50538;53.482;10.294;2023-02-19T23:38:44;101654.97;;;4.32;97.95
63901;BME280;50538;53.482;10.294;2023-02-19T23:48:44;101649.81;;;4.44;97.37
63901;BME280;50538;53.482;10.294;2023-02-19T23:58:45;101633.31;;;4.54;96.63
